sensor_id;sensor_type;location;lat;lon;timestamp;temperature;humidity
10873;DHT22;34586;53.616;10.032;2022-09-01T00:02:25;13.90;1.00
10873;DHT22;34586;53.616;10.032;2022-09-01T00:04:54;13.90;99.90
10873;DHT22;34586;53.616;10.032;2022-09-01T00:07:25;13.90;1.00
10873;DHT22;34586;53.616;10.032;2022-09-01T00:09:51;13.90;1.00
10873;DHT22;34586;53.616;10.032;2022-09-01T00:12:17;13.90;1.00
10873;DHT22;34586;53.616;10.032;2022-09-01T00:14:43;13.90;1.00
10873;DHT22;34586;53.616;10.032;2022-09-01T00:17:11;13.90;1.00
10873;DHT22;34586;53.616;10.032;2022-09-01T00:19:37;13.80;1.00
10873;DHT22;34586;53.616;10.032;2022-09-01T00:22:05;13.80;1.00
10873;DHT22;34586;53.616;10.032;2022-09-01T00:24:30;14.00;1.00
10873;DHT22;34586;53.616;10.032;2022-09-01T00:26:56;13.70;1.00
10873;DHT22;34586;53.616;10.032;2022-09-01T00:29:22;13.70;1.00
10873;DHT22;34586;53.616;10.032;2022-09-01T00:31:49;13.70;1.00
10873;DHT22;34586;53.616;10.032;2022-09-01T00:34:15;13.70;1.00
10873;DHT22;34586;53.616;10.032;2022-09-01T00:36:41;13.60;1.00
10873;DHT22;34586;53.616;10.032;2022-09-01T00:39:07;13.50;1.00
10873;DHT22;34586;53.616;10.032;2022-09-01T00:41:35;13.50;1.00
10873;DHT22;34586;53.616;10.032;2022-09-01T00:44:05;13.50;1.00
10873;DHT22;34586;53.616;10.032;2022-09-01T00:46:34;13.40;1.00
10873;DHT22;34586;53.616;10.032;2022-09-01T00:49:04;13.40;1.00
10873;DHT22;34586;53.616;10.032;2022-09-01T00:51:33;13.30;1.00
10873;DHT22;34586;53.616;10.032;2022-09-01T00:54:00;13.30;1.00
10873;DHT22;34586;53.616;10.032;2022-09-01T00:56:28;13.20;1.00
10873;DHT22;34586;53.616;10.032;2022-09-01T00:58:54;13.20;1.00
10873;DHT22;34586;53.616;10.032;2022-09-01T01:01:20;13.20;1.00
10873;DHT22;34586;53.616;10.032;2022-09-01T01:03:47;13.20;1.00
10873;DHT22;34586;53.616;10.032;2022-09-01T01:06:15;13.10;1.00
10873;DHT22;34586;53.616;10.032;2022-09-01T01:08:46;13.10;1.00
10873;DHT22;34586;53.616;10.032;2022-09-01T01:11:21;13.10;1.00
10873;DHT22;34586;53.616;10.032;2022-09-01T01:13:55;13.10;1.00
10873;DHT22;34586;53.616;10.032;2022-09-01T01:16:23;13.00;1.00
10873;DHT22;34586;53.616;10.032;2022-09-01T01:18:49;13.00;1.00
10873;DHT22;34586;53.616;10.032;2022-09-01T01:21:40;13.00;1.00
10873;DHT22;34586;53.616;10.032;2022-09-01T01:24:28;13.00;1.00
10873;DHT22;34586;53.616;10.032;2022-09-01T01:26:55;13.00;1.00
10873;DHT22;34586;53.616;10.032;2022-09-01T01:29:25;13.00;1.00
10873;DHT22;34586;53.616;10.032;2022-09-01T01:31:52;13.10;1.00
10873;DHT22;34586;53.616;10.032;2022-09-01T01:34:18;13.00;1.00
10873;DHT22;34586;53.616;10.032;2022-09-01T01:36:45;13.00;1.00
10873;DHT22;34586;53.616;10.032;2022-09-01T01:39:15;13.00;1.00
10873;DHT22;34586;53.616;10.032;2022-09-01T01:41:43;13.10;1.00
10873;DHT22;34586;53.616;10.032;2022-09-01T01:44:14;13.00;1.00
10873;DHT22;34586;53.616;10.032;2022-09-01T01:46:44;13.00;1.00
10873;DHT22;34586;53.616;10.032;2022-09-01T01:49:12;13.00;1.00
10873;DHT22;34586;53.616;10.032;2022-09-01T01:51:39;13.00;1.00
10873;DHT22;34586;53.616;10.032;2022-09-01T01:54:05;13.00;1.00
10873;DHT22;34586;53.616;10.032;2022-09-01T01:56:34;13.00;1.00
10873;DHT22;34586;53.616;10.032;2022-09-01T01:59:04;13.00;1.00
10873;DHT22;34586;53.616;10.032;2022-09-01T02:01:31;13.00;1.00
10873;DHT22;34586;53.616;10.032;2022-09-01T02:03:59;12.90;1.00
10873;DHT22;34586;53.616;10.032;2022-09-01T02:06:26;12.90;1.00
10873;DHT22;34586;53.616;10.032;2022-09-01T02:08:55;12.80;1.00
10873;DHT22;34586;53.616;10.032;2022-09-01T02:11:23;12.80;1.00
10873;DHT22;34586;53.616;10.032;2022-09-01T02:13:50;12.80;1.00
10873;DHT22;34586;53.616;10.032;2022-09-01T02:16:20;12.80;1.00
10873;DHT22;34586;53.616;10.032;2022-09-01T02:18:47;12.60;1.00
10873;DHT22;34586;53.616;10.032;2022-09-01T02:21:17;12.70;1.00
10873;DHT22;34586;53.616;10.032;2022-09-01T02:24:06;12.60;1.00
10873;DHT22;34586;53.616;10.032;2022-09-01T02:26:42;12.60;1.00
10873;DHT22;34586;53.616;10.032;2022-09-01T02:29:16;12.60;1.00
10873;DHT22;34586;53.616;10.032;2022-09-01T02:31:49;12.60;1.00
10873;DHT22;34586;53.616;10.032;2022-09-01T02:34:15;12.60;1.00
10873;DHT22;34586;53.616;10.032;2022-09-01T02:36:43;12.50;1.00
10873;DHT22;34586;53.616;10.032;2022-09-01T02:39:14;12.50;1.00
10873;DHT22;34586;53.616;10.032;2022-09-01T02:41:40;12.50;1.00
10873;DHT22;34586;53.616;10.032;2022-09-01T02:44:06;12.50;1.00
10873;DHT22;34586;53.616;10.032;2022-09-01T02:46:39;12.40;1.00
10873;DHT22;34586;53.616;10.032;2022-09-01T02:49:13;12.40;1.00
10873;DHT22;34586;53.616;10.032;2022-09-01T02:51:42;12.40;1.00
10873;DHT22;34586;53.616;10.032;2022-09-01T02:54:08;12.40;1.00
10873;DHT22;34586;53.616;10.032;2022-09-01T02:56:34;12.30;1.00
10873;DHT22;34586;53.616;10.032;2022-09-01T02:59:00;12.30;1.00
10873;DHT22;34586;53.616;10.032;2022-09-01T03:01:29;12.40;1.00
10873;DHT22;34586;53.616;10.032;2022-09-01T03:04:04;12.30;1.00
10873;DHT22;34586;53.616;10.032;2022-09-01T03:06:32;12.30;1.00
10873;DHT22;34586;53.616;10.032;2022-09-01T03:08:59;12.20;1.00
10873;DHT22;34586;53.616;10.032;2022-09-01T03:11:28;12.20;1.00
10873;DHT22;34586;53.616;10.032;2022-09-01T03:13:54;12.10;1.00
10873;DHT22;34586;53.616;10.032;2022-09-01T03:16:21;12.10;1.00
10873;DHT22;34586;53.616;10.032;2022-09-01T03:18:50;12.10;1.70
10873;DHT22;34586;53.616;10.032;2022-09-01T03:21:15;12.00;1.00
10873;DHT22;34586;53.616;10.032;2022-09-01T03:23:43;12.00;1.00
10873;DHT22;34586;53.616;10.032;2022-09-01T03:26:09;12.00;1.00
10873;DHT22;34586;53.616;10.032;2022-09-01T03:28:34;12.00;1.00
10873;DHT22;34586;53.616;10.032;2022-09-01T03:31:02;12.00;1.00
10873;DHT22;34586;53.616;10.032;2022-09-01T03:33:29;12.00;1.00
10873;DHT22;34586;53.616;10.032;2022-09-01T03:35:55;12.00;1.00
10873;DHT22;34586;53.616;10.032;2022-09-01T03:38:22;12.00;1.00
10873;DHT22;34586;53.616;10.032;2022-09-01T03:40:50;11.90;1.00
10873;DHT22;34586;53.616;10.032;2022-09-01T03:43:18;11.90;1.00
10873;DHT22;34586;53.616;10.032;2022-09-01T03:45:48;11.90;1.00
10873;DHT22;34586;53.616;10.032;2022-09-01T03:48:15;11.90;1.00
10873;DHT22;34586;53.616;10.032;2022-09-01T03:50:42;11.90;1.00
10873;DHT22;34586;53.616;10.032;2022-09-01T03:53:13;11.80;1.00
10873;DHT22;34586;53.616;10.032;2022-09-01T03:55:39;11.90;10.80
10873;DHT22;34586;53.616;10.032;2022-09-01T03:58:08;11.80;6.30
10873;DHT22;34586;53.616;10.032;2022-09-01T04:00:42;11.80;19.60
10873;DHT22;34586;53.616;10.032;2022-09-01T04:03:11;11.80;25.30
10873;DHT22;34586;53.616;10.032;2022-09-01T04:05:41;11.90;37.70
10873;DHT22;34586;53.616;10.032;2022-09-01T04:08:08;11.80;36.50
10873;DHT22;34586;53.616;10.032;2022-09-01T04:10:49;11.90;54.40
10873;DHT22;34586;53.616;10.032;2022-09-01T04:13:25;11.90;49.40
10873;DHT22;34586;53.616;10.032;2022-09-01T04:15:51;11.80;33.20
10873;DHT22;34586;53.616;10.032;2022-09-01T04:18:19;11.80;35.50
10873;DHT22;34586;53.616;10.032;2022-09-01T04:20:50;11.80;26.20
10873;DHT22;34586;53.616;10.032;2022-09-01T04:25:55;11.70;37.40
10873;DHT22;34586;53.616;10.032;2022-09-01T04:28:22;11.70;14.90
10873;DHT22;34586;53.616;10.032;2022-09-01T04:30:54;11.70;18.80
10873;DHT22;34586;53.616;10.032;2022-09-01T04:33:26;11.70;35.40
10873;DHT22;34586;53.616;10.032;2022-09-01T04:36:02;11.70;36.00
10873;DHT22;34586;53.616;10.032;2022-09-01T04:38:30;11.70;12.70
10873;DHT22;34586;53.616;10.032;2022-09-01T04:40:56;11.60;1.10
10873;DHT22;34586;53.616;10.032;2022-09-01T04:43:24;11.60;1.00
10873;DHT22;34586;53.616;10.032;2022-09-01T04:45:51;11.60;4.80
10873;DHT22;34586;53.616;10.032;2022-09-01T04:48:18;11.60;7.80
10873;DHT22;34586;53.616;10.032;2022-09-01T04:50:47;11.70;20.00
10873;DHT22;34586;53.616;10.032;2022-09-01T04:53:14;11.60;26.20
10873;DHT22;34586;53.616;10.032;2022-09-01T04:55:43;11.70;24.60
10873;DHT22;34586;53.616;10.032;2022-09-01T04:58:11;11.60;23.10
10873;DHT22;34586;53.616;10.032;2022-09-01T05:00:39;11.60;26.30
10873;DHT22;34586;53.616;10.032;2022-09-01T05:03:05;11.70;27.90
10873;DHT22;34586;53.616;10.032;2022-09-01T05:05:41;11.60;31.60
10873;DHT22;34586;53.616;10.032;2022-09-01T05:08:12;11.60;15.60
10873;DHT22;34586;53.616;10.032;2022-09-01T05:10:42;11.60;1.00
10873;DHT22;34586;53.616;10.032;2022-09-01T05:13:11;11.70;1.00
10873;DHT22;34586;53.616;10.032;2022-09-01T05:15:39;12.00;16.70
10873;DHT22;34586;53.616;10.032;2022-09-01T05:18:14;11.90;4.40
10873;DHT22;34586;53.616;10.032;2022-09-01T05:20:42;11.90;1.00
10873;DHT22;34586;53.616;10.032;2022-09-01T05:23:09;11.80;1.00
10873;DHT22;34586;53.616;10.032;2022-09-01T05:25:41;11.90;1.00
10873;DHT22;34586;53.616;10.032;2022-09-01T05:28:09;11.90;1.00
10873;DHT22;34586;53.616;10.032;2022-09-01T05:30:39;11.90;10.60
10873;DHT22;34586;53.616;10.032;2022-09-01T05:33:06;12.00;17.40
10873;DHT22;34586;53.616;10.032;2022-09-01T05:35:42;12.10;1.30
10873;DHT22;34586;53.616;10.032;2022-09-01T05:38:17;12.10;18.30
10873;DHT22;34586;53.616;10.032;2022-09-01T05:40:43;12.10;13.50
10873;DHT22;34586;53.616;10.032;2022-09-01T05:43:11;12.10;7.70
10873;DHT22;34586;53.616;10.032;2022-09-01T05:45:41;12.30;9.90
10873;DHT22;34586;53.616;10.032;2022-09-01T05:48:10;12.40;2.50
10873;DHT22;34586;53.616;10.032;2022-09-01T05:50:39;12.40;15.10
10873;DHT22;34586;53.616;10.032;2022-09-01T05:53:10;12.50;15.30
10873;DHT22;34586;53.616;10.032;2022-09-01T05:55:46;12.60;11.90
10873;DHT22;34586;53.616;10.032;2022-09-01T05:58:14;12.70;10.20
10873;DHT22;34586;53.616;10.032;2022-09-01T06:00:46;12.80;22.70
10873;DHT22;34586;53.616;10.032;2022-09-01T06:03:14;13.00;14.30
10873;DHT22;34586;53.616;10.032;2022-09-01T06:05:41;12.90;15.30
10873;DHT22;34586;53.616;10.032;2022-09-01T06:08:08;13.10;8.20
10873;DHT22;34586;53.616;10.032;2022-09-01T06:10:41;13.20;17.60
10873;DHT22;34586;53.616;10.032;2022-09-01T06:13:08;13.30;10.70
10873;DHT22;34586;53.616;10.032;2022-09-01T06:15:35;13.40;17.00
10873;DHT22;34586;53.616;10.032;2022-09-01T06:18:04;13.60;1.70
10873;DHT22;34586;53.616;10.032;2022-09-01T06:20:30;13.60;1.00
10873;DHT22;34586;53.616;10.032;2022-09-01T06:22:56;13.80;1.00
10873;DHT22;34586;53.616;10.032;2022-09-01T06:25:22;13.80;1.00
10873;DHT22;34586;53.616;10.032;2022-09-01T06:27:48;13.90;1.00
10873;DHT22;34586;53.616;10.032;2022-09-01T06:30:16;14.00;1.00
10873;DHT22;34586;53.616;10.032;2022-09-01T06:32:54;14.10;1.00
10873;DHT22;34586;53.616;10.032;2022-09-01T06:35:22;14.30;1.00
10873;DHT22;34586;53.616;10.032;2022-09-01T06:37:56;14.40;1.00
10873;DHT22;34586;53.616;10.032;2022-09-01T06:40:23;14.50;1.00
10873;DHT22;34586;53.616;10.032;2022-09-01T06:42:51;14.60;1.00
10873;DHT22;34586;53.616;10.032;2022-09-01T06:45:19;14.70;1.00
10873;DHT22;34586;53.616;10.032;2022-09-01T06:47:46;14.80;1.00
10873;DHT22;34586;53.616;10.032;2022-09-01T06:50:14;14.90;1.00
10873;DHT22;34586;53.616;10.032;2022-09-01T06:52:44;15.20;1.00
10873;DHT22;34586;53.616;10.032;2022-09-01T06:55:12;15.10;1.00
10873;DHT22;34586;53.616;10.032;2022-09-01T06:57:39;15.10;1.00
10873;DHT22;34586;53.616;10.032;2022-09-01T07:00:11;15.30;1.00
10873;DHT22;34586;53.616;10.032;2022-09-01T07:02:47;15.40;1.00
10873;DHT22;34586;53.616;10.032;2022-09-01T07:05:17;15.50;99.90
10873;DHT22;34586;53.616;10.032;2022-09-01T07:07:52;15.60;99.90
10873;DHT22;34586;53.616;10.032;2022-09-01T07:10:21;15.70;1.00
10873;DHT22;34586;53.616;10.032;2022-09-01T07:12:51;15.90;1.00
10873;DHT22;34586;53.616;10.032;2022-09-01T07:15:17;15.90;99.90
10873;DHT22;34586;53.616;10.032;2022-09-01T07:17:52;16.00;99.90
10873;DHT22;34586;53.616;10.032;2022-09-01T07:20:21;16.10;99.50
10873;DHT22;34586;53.616;10.032;2022-09-01T07:22:48;16.20;21.90
10873;DHT22;34586;53.616;10.032;2022-09-01T07:25:14;16.30;99.90
10873;DHT22;34586;53.616;10.032;2022-09-01T07:27:42;16.40;1.00
10873;DHT22;34586;53.616;10.032;2022-09-01T07:30:25;16.50;1.00
10873;DHT22;34586;53.616;10.032;2022-09-01T07:32:51;16.50;99.90
10873;DHT22;34586;53.616;10.032;2022-09-01T07:35:19;16.70;1.00
10873;DHT22;34586;53.616;10.032;2022-09-01T07:37:46;16.80;1.00
10873;DHT22;34586;53.616;10.032;2022-09-01T07:40:14;16.80;1.00
10873;DHT22;34586;53.616;10.032;2022-09-01T07:42:46;17.10;1.00
10873;DHT22;34586;53.616;10.032;2022-09-01T07:45:13;17.00;1.00
10873;DHT22;34586;53.616;10.032;2022-09-01T07:47:39;17.10;1.00
10873;DHT22;34586;53.616;10.032;2022-09-01T07:50:07;17.20;22.90
10873;DHT22;34586;53.616;10.032;2022-09-01T07:52:34;17.20;99.90
10873;DHT22;34586;53.616;10.032;2022-09-01T07:55:04;17.20;99.90
10873;DHT22;34586;53.616;10.032;2022-09-01T07:57:30;17.30;99.90
10873;DHT22;34586;53.616;10.032;2022-09-01T07:59:56;17.40;1.00
10873;DHT22;34586;53.616;10.032;2022-09-01T08:02:21;17.50;99.90
10873;DHT22;34586;53.616;10.032;2022-09-01T08:04:48;17.60;1.00
10873;DHT22;34586;53.616;10.032;2022-09-01T08:07:14;17.60;1.00
10873;DHT22;34586;53.616;10.032;2022-09-01T08:09:40;17.60;1.00
10873;DHT22;34586;53.616;10.032;2022-09-01T08:12:07;17.70;1.00
10873;DHT22;34586;53.616;10.032;2022-09-01T08:14:33;17.80;1.00
10873;DHT22;34586;53.616;10.032;2022-09-01T08:16:59;17.90;99.90
10873;DHT22;34586;53.616;10.032;2022-09-01T08:19:24;17.90;1.00
10873;DHT22;34586;53.616;10.032;2022-09-01T08:21:50;17.90;99.90
10873;DHT22;34586;53.616;10.032;2022-09-01T08:24:15;18.20;99.90
10873;DHT22;34586;53.616;10.032;2022-09-01T08:26:41;18.10;99.90
10873;DHT22;34586;53.616;10.032;2022-09-01T08:29:07;18.10;1.00
10873;DHT22;34586;53.616;10.032;2022-09-01T08:31:33;18.10;99.90
10873;DHT22;34586;53.616;10.032;2022-09-01T08:34:00;18.20;1.00
10873;DHT22;34586;53.616;10.032;2022-09-01T08:36:27;18.30;1.00
10873;DHT22;34586;53.616;10.032;2022-09-01T08:38:53;18.30;1.00
10873;DHT22;34586;53.616;10.032;2022-09-01T08:47:01;18.50;1.00
10873;DHT22;34586;53.616;10.032;2022-09-01T08:49:28;18.50;49.10
10873;DHT22;34586;53.616;10.032;2022-09-01T08:51:59;18.60;96.40
10873;DHT22;34586;53.616;10.032;2022-09-01T08:54:45;18.60;99.90
10873;DHT22;34586;53.616;10.032;2022-09-01T08:57:33;18.70;99.90
10873;DHT22;34586;53.616;10.032;2022-09-01T08:59:59;18.80;9.10
10873;DHT22;34586;53.616;10.032;2022-09-01T09:05:49;18.80;99.90
10873;DHT22;34586;53.616;10.032;2022-09-01T09:11:59;18.90;1.00
10873;DHT22;34586;53.616;10.032;2022-09-01T09:16:46;19.10;99.90
10873;DHT22;34586;53.616;10.032;2022-09-01T09:19:24;19.10;76.60
10873;DHT22;34586;53.616;10.032;2022-09-01T09:21:52;19.20;99.90
10873;DHT22;34586;53.616;10.032;2022-09-01T09:24:28;19.30;99.90
10873;DHT22;34586;53.616;10.032;2022-09-01T09:27:25;19.30;99.90
10873;DHT22;34586;53.616;10.032;2022-09-01T09:32:20;19.40;1.00
10873;DHT22;34586;53.616;10.032;2022-09-01T09:34:47;19.30;1.00
10873;DHT22;34586;53.616;10.032;2022-09-01T09:37:42;19.30;1.00
10873;DHT22;34586;53.616;10.032;2022-09-01T09:40:23;19.40;40.10
10873;DHT22;34586;53.616;10.032;2022-09-01T09:47:59;19.70;99.90
10873;DHT22;34586;53.616;10.032;2022-09-01T09:50:31;19.80;14.80
10873;DHT22;34586;53.616;10.032;2022-09-01T09:56:08;19.90;1.00
10873;DHT22;34586;53.616;10.032;2022-09-01T09:58:41;19.80;1.00
10873;DHT22;34586;53.616;10.032;2022-09-01T10:01:11;19.90;1.00
10873;DHT22;34586;53.616;10.032;2022-09-01T10:03:49;19.90;1.00
10873;DHT22;34586;53.616;10.032;2022-09-01T10:09:03;20.10;99.90
10873;DHT22;34586;53.616;10.032;2022-09-01T10:11:40;20.10;99.90
10873;DHT22;34586;53.616;10.032;2022-09-01T10:16:39;20.00;99.90
10873;DHT22;34586;53.616;10.032;2022-09-01T10:19:11;20.20;99.90
10873;DHT22;34586;53.616;10.032;2022-09-01T10:21:38;20.30;99.90
10873;DHT22;34586;53.616;10.032;2022-09-01T10:24:18;20.40;99.90
10873;DHT22;34586;53.616;10.032;2022-09-01T10:26:50;20.50;99.90
10873;DHT22;34586;53.616;10.032;2022-09-01T10:32:25;20.50;99.90
10873;DHT22;34586;53.616;10.032;2022-09-01T10:34:52;20.60;99.90
10873;DHT22;34586;53.616;10.032;2022-09-01T10:37:18;20.70;99.90
10873;DHT22;34586;53.616;10.032;2022-09-01T10:42:35;20.90;99.90
10873;DHT22;34586;53.616;10.032;2022-09-01T10:45:00;21.00;99.90
10873;DHT22;34586;53.616;10.032;2022-09-01T10:47:33;21.20;99.90
10873;DHT22;34586;53.616;10.032;2022-09-01T10:50:21;21.30;99.90
10873;DHT22;34586;53.616;10.032;2022-09-01T10:55:30;21.40;71.60
10873;DHT22;34586;53.616;10.032;2022-09-01T11:00:46;21.30;96.40
10873;DHT22;34586;53.616;10.032;2022-09-01T11:08:39;21.30;99.90
10873;DHT22;34586;53.616;10.032;2022-09-01T11:11:20;21.30;99.90
10873;DHT22;34586;53.616;10.032;2022-09-01T11:13:55;21.30;99.90
10873;DHT22;34586;53.616;10.032;2022-09-01T11:16:36;21.20;1.00
10873;DHT22;34586;53.616;10.032;2022-09-01T11:21:46;21.30;99.90
10873;DHT22;34586;53.616;10.032;2022-09-01T11:27:08;21.40;99.90
10873;DHT22;34586;53.616;10.032;2022-09-01T11:30:06;21.40;99.90
10873;DHT22;34586;53.616;10.032;2022-09-01T11:32:35;21.50;99.90
10873;DHT22;34586;53.616;10.032;2022-09-01T11:35:04;21.70;99.90
10873;DHT22;34586;53.616;10.032;2022-09-01T11:37:31;21.90;99.90
10873;DHT22;34586;53.616;10.032;2022-09-01T11:40:00;22.10;99.90
10873;DHT22;34586;53.616;10.032;2022-09-01T11:42:35;22.20;30.40
10873;DHT22;34586;53.616;10.032;2022-09-01T11:45:16;22.50;91.30
10873;DHT22;34586;53.616;10.032;2022-09-01T11:47:45;22.90;1.00
10873;DHT22;34586;53.616;10.032;2022-09-01T11:50:36;23.00;1.00
10873;DHT22;34586;53.616;10.032;2022-09-01T11:53:14;22.60;1.00
10873;DHT22;34586;53.616;10.032;2022-09-01T11:55:47;22.20;1.00
10873;DHT22;34586;53.616;10.032;2022-09-01T12:01:09;21.50;1.00
10873;DHT22;34586;53.616;10.032;2022-09-01T12:03:35;21.40;1.00
10873;DHT22;34586;53.616;10.032;2022-09-01T12:06:03;21.10;12.80
10873;DHT22;34586;53.616;10.032;2022-09-01T12:08:40;21.40;99.90
10873;DHT22;34586;53.616;10.032;2022-09-01T12:11:19;21.80;99.90
10873;DHT22;34586;53.616;10.032;2022-09-01T12:14:04;22.10;44.60
10873;DHT22;34586;53.616;10.032;2022-09-01T12:16:32;22.50;1.00
10873;DHT22;34586;53.616;10.032;2022-09-01T12:18:59;22.70;25.70
10873;DHT22;34586;53.616;10.032;2022-09-01T12:21:27;22.70;1.00
10873;DHT22;34586;53.616;10.032;2022-09-01T12:23:54;22.50;1.00
10873;DHT22;34586;53.616;10.032;2022-09-01T12:26:33;22.20;21.50
10873;DHT22;34586;53.616;10.032;2022-09-01T12:28:59;21.90;79.70
10873;DHT22;34586;53.616;10.032;2022-09-01T12:31:25;21.70;90.60
10873;DHT22;34586;53.616;10.032;2022-09-01T12:33:53;21.60;99.90
10873;DHT22;34586;53.616;10.032;2022-09-01T12:38:47;21.40;99.90
10873;DHT22;34586;53.616;10.032;2022-09-01T12:47:06;22.00;95.30
10873;DHT22;34586;53.616;10.032;2022-09-01T12:49:44;22.40;1.00
10873;DHT22;34586;53.616;10.032;2022-09-01T12:52:19;22.80;1.00
10873;DHT22;34586;53.616;10.032;2022-09-01T12:57:34;23.30;1.00
10873;DHT22;34586;53.616;10.032;2022-09-01T13:05:31;22.90;1.00
10873;DHT22;34586;53.616;10.032;2022-09-01T13:08:17;22.70;1.00
10873;DHT22;34586;53.616;10.032;2022-09-01T13:10:46;22.60;1.00
10873;DHT22;34586;53.616;10.032;2022-09-01T13:13:13;22.50;1.00
10873;DHT22;34586;53.616;10.032;2022-09-01T13:15:42;22.40;1.00
10873;DHT22;34586;53.616;10.032;2022-09-01T13:18:08;22.20;1.00
10873;DHT22;34586;53.616;10.032;2022-09-01T13:20:35;22.10;1.00
10873;DHT22;34586;53.616;10.032;2022-09-01T13:23:00;22.00;1.00
10873;DHT22;34586;53.616;10.032;2022-09-01T13:25:27;22.00;1.00
10873;DHT22;34586;53.616;10.032;2022-09-01T13:27:53;21.90;1.00
10873;DHT22;34586;53.616;10.032;2022-09-01T13:30:22;21.90;1.00
10873;DHT22;34586;53.616;10.032;2022-09-01T13:32:48;21.90;1.00
10873;DHT22;34586;53.616;10.032;2022-09-01T13:35:18;21.90;1.00
10873;DHT22;34586;53.616;10.032;2022-09-01T13:37:47;21.90;1.00
10873;DHT22;34586;53.616;10.032;2022-09-01T13:40:14;21.80;1.00
10873;DHT22;34586;53.616;10.032;2022-09-01T13:42:45;21.90;3.40
10873;DHT22;34586;53.616;10.032;2022-09-01T13:45:12;22.00;40.60
10873;DHT22;34586;53.616;10.032;2022-09-01T13:47:41;22.20;30.30
10873;DHT22;34586;53.616;10.032;2022-09-01T13:50:10;22.30;5.10
10873;DHT22;34586;53.616;10.032;2022-09-01T13:52:49;22.30;1.00
10873;DHT22;34586;53.616;10.032;2022-09-01T13:55:21;22.50;1.00
10873;DHT22;34586;53.616;10.032;2022-09-01T13:57:48;22.90;1.00
10873;DHT22;34586;53.616;10.032;2022-09-01T14:00:17;23.30;1.00
10873;DHT22;34586;53.616;10.032;2022-09-01T14:02:48;23.90;1.00
10873;DHT22;34586;53.616;10.032;2022-09-01T14:05:20;24.00;1.00
10873;DHT22;34586;53.616;10.032;2022-09-01T14:07:46;24.20;1.00
10873;DHT22;34586;53.616;10.032;2022-09-01T14:10:13;24.40;1.00
10873;DHT22;34586;53.616;10.032;2022-09-01T14:12:40;24.90;1.00
10873;DHT22;34586;53.616;10.032;2022-09-01T14:15:08;25.10;1.00
10873;DHT22;34586;53.616;10.032;2022-09-01T14:17:35;25.50;1.00
10873;DHT22;34586;53.616;10.032;2022-09-01T14:20:07;25.50;1.00
10873;DHT22;34586;53.616;10.032;2022-09-01T14:22:34;25.70;1.00
10873;DHT22;34586;53.616;10.032;2022-09-01T14:25:00;25.60;1.00
10873;DHT22;34586;53.616;10.032;2022-09-01T14:27:26;25.20;1.00
10873;DHT22;34586;53.616;10.032;2022-09-01T14:29:52;24.60;1.00
10873;DHT22;34586;53.616;10.032;2022-09-01T14:32:18;23.90;1.00
10873;DHT22;34586;53.616;10.032;2022-09-01T14:34:55;23.20;1.00
10873;DHT22;34586;53.616;10.032;2022-09-01T14:37:22;22.70;1.00
10873;DHT22;34586;53.616;10.032;2022-09-01T14:39:49;22.50;1.00
10873;DHT22;34586;53.616;10.032;2022-09-01T14:42:15;22.30;1.00
10873;DHT22;34586;53.616;10.032;2022-09-01T14:44:40;22.10;1.00
10873;DHT22;34586;53.616;10.032;2022-09-01T14:47:07;21.90;1.00
10873;DHT22;34586;53.616;10.032;2022-09-01T14:49:34;22.00;1.00
10873;DHT22;34586;53.616;10.032;2022-09-01T14:52:05;22.20;1.00
10873;DHT22;34586;53.616;10.032;2022-09-01T14:54:41;22.50;1.00
10873;DHT22;34586;53.616;10.032;2022-09-01T14:57:07;22.70;1.00
10873;DHT22;34586;53.616;10.032;2022-09-01T14:59:34;22.90;1.00
10873;DHT22;34586;53.616;10.032;2022-09-01T15:01:59;23.10;1.00
10873;DHT22;34586;53.616;10.032;2022-09-01T15:04:25;23.30;1.00
10873;DHT22;34586;53.616;10.032;2022-09-01T15:06:52;23.30;1.00
10873;DHT22;34586;53.616;10.032;2022-09-01T15:09:18;23.30;1.00
10873;DHT22;34586;53.616;10.032;2022-09-01T15:11:44;23.50;1.00
10873;DHT22;34586;53.616;10.032;2022-09-01T15:14:10;23.60;1.00
10873;DHT22;34586;53.616;10.032;2022-09-01T15:16:37;23.70;1.00
10873;DHT22;34586;53.616;10.032;2022-09-01T15:19:08;23.80;1.00
10873;DHT22;34586;53.616;10.032;2022-09-01T15:21:36;23.60;1.00
10873;DHT22;34586;53.616;10.032;2022-09-01T15:24:03;23.30;1.00
10873;DHT22;34586;53.616;10.032;2022-09-01T15:26:29;22.90;1.00
10873;DHT22;34586;53.616;10.032;2022-09-01T15:28:55;22.50;1.00
10873;DHT22;34586;53.616;10.032;2022-09-01T15:31:24;22.00;1.00
10873;DHT22;34586;53.616;10.032;2022-09-01T15:33:55;21.70;1.00
10873;DHT22;34586;53.616;10.032;2022-09-01T15:36:22;21.30;1.00
10873;DHT22;34586;53.616;10.032;2022-09-01T15:38:48;21.20;10.80
10873;DHT22;34586;53.616;10.032;2022-09-01T15:41:19;21.10;89.50
10873;DHT22;34586;53.616;10.032;2022-09-01T15:43:46;21.20;99.90
10873;DHT22;34586;53.616;10.032;2022-09-01T15:46:11;21.30;92.70
10873;DHT22;34586;53.616;10.032;2022-09-01T15:48:40;21.20;99.90
10873;DHT22;34586;53.616;10.032;2022-09-01T15:51:34;21.20;99.90
10873;DHT22;34586;53.616;10.032;2022-09-01T15:54:13;21.30;99.90
10873;DHT22;34586;53.616;10.032;2022-09-01T15:56:38;21.30;99.90
10873;DHT22;34586;53.616;10.032;2022-09-01T15:59:05;21.40;99.90
10873;DHT22;34586;53.616;10.032;2022-09-01T16:01:34;21.40;99.90
10873;DHT22;34586;53.616;10.032;2022-09-01T16:04:07;21.30;99.90
10873;DHT22;34586;53.616;10.032;2022-09-01T16:06:33;21.20;99.90
10873;DHT22;34586;53.616;10.032;2022-09-01T16:08:59;21.20;99.90
10873;DHT22;34586;53.616;10.032;2022-09-01T16:11:25;21.10;99.90
10873;DHT22;34586;53.616;10.032;2022-09-01T16:13:52;21.00;99.90
10873;DHT22;34586;53.616;10.032;2022-09-01T16:16:28;20.90;99.90
10873;DHT22;34586;53.616;10.032;2022-09-01T16:19:02;20.90;99.90
10873;DHT22;34586;53.616;10.032;2022-09-01T16:24:09;20.70;99.90
10873;DHT22;34586;53.616;10.032;2022-09-01T16:26:35;20.70;99.90
10873;DHT22;34586;53.616;10.032;2022-09-01T16:29:31;20.60;99.90
10873;DHT22;34586;53.616;10.032;2022-09-01T16:31:58;20.50;99.90
10873;DHT22;34586;53.616;10.032;2022-09-01T16:34:25;20.40;99.90
10873;DHT22;34586;53.616;10.032;2022-09-01T16:37:10;20.40;99.90
10873;DHT22;34586;53.616;10.032;2022-09-01T16:39:47;20.40;99.90
10873;DHT22;34586;53.616;10.032;2022-09-01T16:42:39;20.30;99.90
10873;DHT22;34586;53.616;10.032;2022-09-01T16:51:51;20.00;99.90
10873;DHT22;34586;53.616;10.032;2022-09-01T16:59:57;19.80;99.90
10873;DHT22;34586;53.616;10.032;2022-09-01T17:05:47;19.80;1.00
10873;DHT22;34586;53.616;10.032;2022-09-01T17:08:30;19.70;99.90
10873;DHT22;34586;53.616;10.032;2022-09-01T17:11:10;19.60;1.00
10873;DHT22;34586;53.616;10.032;2022-09-01T17:13:45;19.50;1.00
10873;DHT22;34586;53.616;10.032;2022-09-01T17:16:37;19.50;1.00